Time;durP1;ratioP1;P1;durP2;ratioP2;P2;SDS_P1;SDS_P2;PMS_P1;PMS_P2;Temp;Humidity;BMP_temperature;BMP_pressure;BME280_temperature;BME280_humidity;BME280_pressure;Samples;Min_cycle;Max_cycle;Signal;HPM_P1;HPM_P2
2023/12/14 00:02:12;;;;;;;;;;;;;;;2.90;58.65;94445.72;4958847;28;19970;-68
2023/12/14 00:04:37;;;;;;;;;;;;;;;3.06;61.59;94458.09;4959023;28;19965;-68
2023/12/14 00:07:03;;;;;;;;;;;;;;;3.07;61.62;94457.13;4959899;28;19929;-68
2023/12/14 00:09:28;;;;;;;;;;;;;;;2.59;57.51;94462.03;4959102;28;20283;-68
2023/12/14 00:11:53;;;;;;;;;;;;;;;2.92;63.66;94459.53;4959351;28;19918;-68
2023/12/14 00:14:18;;;;;;;;;;;;;;;3.03;61.95;94461.06;4959240;28;19930;-68
2023/12/14 00:16:44;;;;;;;;;;;;;;;3.15;58.61;94462.41;4961060;28;19969;-68
2023/12/14 00:19:09;;;;;;;;;;;;;;;2.97;57.01;94461.69;4960121;28;19922;-68
2023/12/14 00:21:34;;;;;;;;;;;;;;;2.59;58.64;94475.16;4958737;28;19949;-68
2023/12/14 00:23:59;;;;;;;;;;;;;;;2.87;61.38;94473.16;4959272;28;20021;-68
2023/12/14 00:26:25;;;;;;;;;;;;;;;2.96;60.39;94475.81;4959527;28;20400;-68
2023/12/14 00:28:50;;;;;;;;;;;;;;;2.85;59.97;94479.53;4959294;28;19964;-68
2023/12/14 00:31:22;;;;;;;;;;;;;;;2.59;60.26;94480.41;4959717;28;19922;-68
2023/12/14 00:33:48;;;;;;;;;;;;;;;2.37;61.46;94483.41;4955094;28;19937;-67
2023/12/14 00:36:19;;;;;;;;;;;;;;;2.17;61.79;94490.66;4958712;28;19930;-67
2023/12/14 00:38:45;;;;;;;;;;;;;;;1.98;62.09;94494.28;4958453;28;19922;-66
2023/12/14 00:41:10;;;;;;;;;;;;;;;1.80;62.55;94500.38;4959907;28;20299;-65
2023/12/14 00:43:36;;;;;;;;;;;;;;;1.83;64.03;94505.31;4959072;28;20064;-67
2023/12/14 00:46:01;;;;;;;;;;;;;;;1.87;63.41;94508.47;4959371;28;20051;-67
2023/12/14 00:48:26;;;;;;;;;;;;;;;1.80;63.40;94518.75;4959340;28;19930;-67
2023/12/14 00:50:51;;;;;;;;;;;;;;;1.94;64.76;94516.59;4959220;28;19969;-67
2023/12/14 00:53:17;;;;;;;;;;;;;;;2.00;64.57;94519.41;4958689;28;19937;-66
2023/12/14 00:55:42;;;;;;;;;;;;;;;2.19;64.82;94522.03;4958531;28;19930;-67
2023/12/14 00:58:07;;;;;;;;;;;;;;;2.39;63.48;94525.28;4959404;28;20524;-67
2023/12/14 01:00:32;;;;;;;;;;;;;;;2.42;63.50;94525.00;4958556;28;19922;-67
2023/12/14 01:02:58;;;;;;;;;;;;;;;2.40;63.53;94532.19;4958973;28;19933;-67
2023/12/14 01:05:23;;;;;;;;;;;;;;;2.59;63.82;94541.66;4958505;28;20737;-68
2023/12/14 01:07:48;;;;;;;;;;;;;;;2.77;63.32;94544.25;4958408;28;19962;-67
2023/12/14 01:10:14;;;;;;;;;;;;;;;2.98;63.26;94544.84;4957774;28;19922;-67
2023/12/14 01:12:39;;;;;;;;;;;;;;;2.96;62.01;94549.44;4958858;28;19926;-67
2023/12/14 01:15:04;;;;;;;;;;;;;;;2.79;62.18;94557.22;4957799;28;20562;-67
2023/12/14 01:17:30;;;;;;;;;;;;;;;2.73;61.76;94560.50;4958194;28;19933;-68
2023/12/14 01:19:55;;;;;;;;;;;;;;;2.65;62.28;94559.47;4956781;28;20643;-68
2023/12/14 01:22:20;;;;;;;;;;;;;;;2.74;62.34;94562.13;4958381;28;20064;-67
2023/12/14 01:24:45;;;;;;;;;;;;;;;2.74;62.77;94567.38;4958439;28;20420;-67
2023/12/14 01:27:13;;;;;;;;;;;;;;;2.67;62.15;94568.97;4958964;28;19929;-67
2023/12/14 01:29:38;;;;;;;;;;;;;;;2.70;62.08;94574.78;4958523;28;20001;-67
2023/12/14 01:32:04;;;;;;;;;;;;;;;2.72;61.32;94574.63;4989239;28;20579;-67
2023/12/14 01:34:29;;;;;;;;;;;;;;;2.94;63.11;94572.44;4955234;28;20756;-66
2023/12/14 01:36:54;;;;;;;;;;;;;;;3.18;62.54;94579.63;4957790;28;19933;-66
2023/12/14 01:39:20;;;;;;;;;;;;;;;3.11;62.33;94576.81;4958215;28;19973;-67
2023/12/14 01:41:45;;;;;;;;;;;;;;;3.10;61.38;94582.22;4958322;28;20628;-67
2023/12/14 01:44:10;;;;;;;;;;;;;;;3.01;61.27;94590.06;4958429;28;19957;-67
2023/12/14 01:46:35;;;;;;;;;;;;;;;2.89;61.85;94586.88;4958238;28;19929;-67
2023/12/14 01:49:01;;;;;;;;;;;;;;;2.93;61.38;94594.47;4957600;28;19934;-67
2023/12/14 01:51:26;;;;;;;;;;;;;;;2.87;62.20;94598.53;4957650;28;19922;-67
2023/12/14 01:53:51;;;;;;;;;;;;;;;3.00;62.39;94598.94;4957212;28;19922;-67
2023/12/14 01:56:16;;;;;;;;;;;;;;;3.02;60.99;94606.66;4957161;28;19926;-67
2023/12/14 01:58:42;;;;;;;;;;;;;;;3.07;61.03;94614.09;4958167;28;19953;-67
2023/12/14 02:01:22;;;;;;;;;;;;;;;3.03;60.67;94608.34;4957997;28;19937;-67
2023/12/14 02:03:49;;;;;;;;;;;;;;;2.97;61.00;94617.66;4958031;28;19926;-67
2023/12/14 02:06:15;;;;;;;;;;;;;;;2.91;62.32;94616.47;4957559;28;19925;-67
2023/12/14 02:08:40;;;;;;;;;;;;;;;2.86;61.69;94617.91;4970983;28;20297;-67
2023/12/14 02:11:05;;;;;;;;;;;;;;;2.75;61.43;94625.06;4958349;28;19929;-67
2023/12/14 02:13:30;;;;;;;;;;;;;;;2.68;62.81;94629.28;4957862;28;19926;-67
2023/12/14 02:15:55;;;;;;;;;;;;;;;2.59;63.11;94635.47;4957931;28;20310;-67
2023/12/14 02:18:21;;;;;;;;;;;;;;;2.41;63.06;94641.53;4957781;28;19985;-67
2023/12/14 02:20:46;;;;;;;;;;;;;;;2.23;63.90;94638.94;4957782;28;19970;-67
2023/12/14 02:23:11;;;;;;;;;;;;;;;2.05;64.92;94650.25;4957448;28;19930;-67
2023/12/14 02:25:36;;;;;;;;;;;;;;;2.05;65.20;94645.00;4956443;28;19934;-67
2023/12/14 02:28:02;;;;;;;;;;;;;;;1.96;65.22;94646.72;4957501;28;19930;-67
2023/12/14 02:30:27;;;;;;;;;;;;;;;1.95;65.28;94652.94;4957835;28;19926;-67
2023/12/14 02:32:52;;;;;;;;;;;;;;;1.97;66.19;94647.53;4956677;28;19926;-67
2023/12/14 02:35:18;;;;;;;;;;;;;;;2.01;66.37;94654.16;4957682;28;19937;-67
2023/12/14 02:37:43;;;;;;;;;;;;;;;2.07;65.56;94653.53;4957375;28;19953;-67
2023/12/14 02:40:09;;;;;;;;;;;;;;;2.10;66.02;94661.13;4957292;28;19922;-67
2023/12/14 02:42:34;;;;;;;;;;;;;;;2.17;65.44;94656.09;4958075;28;20343;-67
2023/12/14 02:45:01;;;;;;;;;;;;;;;2.23;65.48;94665.19;4957544;28;19922;-68
2023/12/14 02:47:27;;;;;;;;;;;;;;;2.29;66.13;94663.78;4956919;28;19921;-67
2023/12/14 02:49:52;;;;;;;;;;;;;;;2.52;65.03;94664.97;4957364;28;20629;-67
2023/12/14 02:52:17;;;;;;;;;;;;;;;2.61;64.09;94676.38;4956942;28;19930;-67
2023/12/14 02:54:42;;;;;;;;;;;;;;;2.88;63.07;94681.69;4957378;28;20189;-68
2023/12/14 02:57:08;;;;;;;;;;;;;;;2.97;63.71;94686.03;4957055;28;19929;-68
2023/12/14 02:59:33;;;;;;;;;;;;;;;3.55;60.71;94675.88;4957220;28;19926;-68
2023/12/14 03:01:58;;;;;;;;;;;;;;;3.24;61.00;94681.63;4957383;28;20005;-68
2023/12/14 03:04:23;;;;;;;;;;;;;;;3.29;61.26;94689.03;4956544;28;19930;-68
2023/12/14 03:06:49;;;;;;;;;;;;;;;3.19;61.80;94691.75;4957361;28;19933;-68
2023/12/14 03:09:14;;;;;;;;;;;;;;;3.21;62.73;94694.22;4955890;28;20021;-68
2023/12/14 03:11:39;;;;;;;;;;;;;;;3.01;62.15;94699.69;4956675;28;20670;-68
2023/12/14 03:14:04;;;;;;;;;;;;;;;3.00;63.25;94700.69;4957066;28;20464;-68
2023/12/14 03:16:30;;;;;;;;;;;;;;;2.97;62.66;94698.34;4956530;28;19922;-68
2023/12/14 03:18:56;;;;;;;;;;;;;;;2.87;62.94;94706.31;4957135;28;20476;-67
2023/12/14 03:21:21;;;;;;;;;;;;;;;2.86;63.31;94702.84;4956666;28;20014;-68
2023/12/14 03:23:47;;;;;;;;;;;;;;;2.76;64.18;94708.19;4956940;28;20037;-68
2023/12/14 03:26:12;;;;;;;;;;;;;;;2.90;63.07;94711.28;4957047;28;19925;-68
2023/12/14 03:28:37;;;;;;;;;;;;;;;3.23;62.56;94714.16;4956594;28;20529;-68
2023/12/14 03:31:03;;;;;;;;;;;;;;;2.85;63.02;94719.63;4957043;28;19918;-68
2023/12/14 03:33:28;;;;;;;;;;;;;;;2.75;63.60;94724.97;4954220;28;19968;-68
2023/12/14 03:35:53;;;;;;;;;;;;;;;2.75;63.85;94722.34;4956387;28;19934;-68
2023/12/14 03:38:19;;;;;;;;;;;;;;;2.64;63.89;94725.19;4956873;28;19959;-68
2023/12/14 03:40:44;;;;;;;;;;;;;;;2.40;64.71;94729.22;4956876;28;19985;-68
2023/12/14 03:43:09;;;;;;;;;;;;;;;2.38;65.02;94734.63;4957061;28;20296;-68
2023/12/14 03:45:35;;;;;;;;;;;;;;;2.68;65.49;94738.88;4956350;28;19926;-69
2023/12/14 03:48:00;;;;;;;;;;;;;;;2.58;64.35;94738.94;4956549;28;20008;-68
2023/12/14 03:50:25;;;;;;;;;;;;;;;2.81;64.11;94741.94;4956584;28;19936;-69
2023/12/14 03:52:50;;;;;;;;;;;;;;;2.78;64.01;94750.94;4956727;28;20679;-68
2023/12/14 03:55:16;;;;;;;;;;;;;;;2.56;63.49;94760.13;4956767;28;19933;-68
2023/12/14 03:57:41;;;;;;;;;;;;;;;2.42;64.34;94758.00;4956531;28;19926;-68
2023/12/14 04:00:10;;;;;;;;;;;;;;;2.46;64.51;94754.09;4956080;28;20666;-67
2023/12/14 04:02:35;;;;;;;;;;;;;;;2.30;64.50;94768.69;4955658;28;20056;-68
2023/12/14 04:05:01;;;;;;;;;;;;;;;2.23;65.80;94768.47;4956542;28;20439;-68
2023/12/14 04:07:26;;;;;;;;;;;;;;;2.26;65.14;94769.97;4956055;28;19922;-68
2023/12/14 04:09:51;;;;;;;;;;;;;;;2.25;65.52;94774.38;4955166;28;19918;-68
2023/12/14 04:12:17;;;;;;;;;;;;;;;2.42;65.06;94773.75;4956082;28;20459;-68
2023/12/14 04:14:42;;;;;;;;;;;;;;;2.33;65.60;94785.97;4956833;28;20509;-68
2023/12/14 04:17:07;;;;;;;;;;;;;;;2.27;64.83;94780.34;4956114;28;20287;-68
2023/12/14 04:19:32;;;;;;;;;;;;;;;2.37;65.10;94780.28;4956020;28;19926;-68
2023/12/14 04:21:58;;;;;;;;;;;;;;;2.29;65.35;94789.84;4956318;28;19922;-68
2023/12/14 04:24:23;;;;;;;;;;;;;;;2.31;65.34;94788.72;4955965;28;19926;-68
2023/12/14 04:26:48;;;;;;;;;;;;;;;2.21;65.52;94793.22;4956381;28;19964;-68
2023/12/14 04:29:14;;;;;;;;;;;;;;;2.16;65.81;94795.44;4957094;28;19993;-68
2023/12/14 04:31:39;;;;;;;;;;;;;;;2.10;65.92;94797.69;4959839;28;20315;-68
2023/12/14 04:34:04;;;;;;;;;;;;;;;1.81;66.12;94798.63;4959812;28;19933;-68
2023/12/14 04:36:29;;;;;;;;;;;;;;;1.86;67.12;94808.69;4959166;28;20518;-68
2023/12/14 04:38:55;;;;;;;;;;;;;;;1.84;66.56;94813.28;4960006;28;19957;-68
2023/12/14 04:41:20;;;;;;;;;;;;;;;2.00;66.35;94812.66;4959703;28;20654;-68
2023/12/14 04:43:45;;;;;;;;;;;;;;;2.28;66.05;94817.91;4959380;28;19976;-68
2023/12/14 04:46:11;;;;;;;;;;;;;;;2.23;65.73;94817.53;4959830;28;19973;-68
2023/12/14 04:48:36;;;;;;;;;;;;;;;2.47;65.18;94824.03;4959291;28;19932;-68
2023/12/14 04:51:01;;;;;;;;;;;;;;;2.43;64.36;94827.94;4958800;28;19958;-68
2023/12/14 04:53:26;;;;;;;;;;;;;;;2.42;64.73;94834.19;4954326;28;20213;-68
2023/12/14 04:55:52;;;;;;;;;;;;;;;2.63;64.22;94836.56;4960032;28;19926;-68
2023/12/14 04:58:17;;;;;;;;;;;;;;;2.37;64.61;94843.31;4959462;28;20084;-68
2023/12/14 05:00:42;;;;;;;;;;;;;;;2.32;64.84;94845.56;4958586;28;19989;-68
2023/12/14 05:03:07;;;;;;;;;;;;;;;2.24;64.92;94850.69;4959439;28;19926;-67
2023/12/14 05:05:33;;;;;;;;;;;;;;;1.77;66.30;94852.38;4959670;28;19926;-68
2023/12/14 05:07:58;;;;;;;;;;;;;;;1.76;66.64;94855.97;4958048;28;19969;-68
2023/12/14 05:10:23;;;;;;;;;;;;;;;1.70;66.74;94867.03;4959433;28;19918;-68
2023/12/14 05:12:48;;;;;;;;;;;;;;;1.75;66.69;94867.44;4959494;28;19968;-68
2023/12/14 05:15:14;;;;;;;;;;;;;;;1.58;67.68;94877.69;4959540;28;20360;-67
2023/12/14 05:17:40;;;;;;;;;;;;;;;1.65;67.22;94872.72;4958751;28;19933;-67
2023/12/14 05:20:08;;;;;;;;;;;;;;;1.67;67.71;94880.44;4958521;28;19964;-67
2023/12/14 05:22:33;;;;;;;;;;;;;;;1.63;67.82;94879.88;4959360;28;19921;-67
2023/12/14 05:24:58;;;;;;;;;;;;;;;1.72;67.61;94888.72;4958930;28;20666;-67
2023/12/14 05:27:24;;;;;;;;;;;;;;;1.40;68.44;94895.88;4960279;28;19926;-67
2023/12/14 05:29:50;;;;;;;;;;;;;;;0.93;69.69;94899.16;4958885;28;19926;-67
2023/12/14 05:32:15;;;;;;;;;;;;;;;0.80;70.57;94889.78;4957997;28;20454;-67
2023/12/14 05:34:40;;;;;;;;;;;;;;;0.67;71.39;94899.66;4957321;28;19969;-67
2023/12/14 05:37:05;;;;;;;;;;;;;;;1.01;70.18;94894.06;4958142;28;19929;-67
2023/12/14 05:39:31;;;;;;;;;;;;;;;0.72;71.42;94897.47;4958335;28;20401;-67
2023/12/14 05:41:56;;;;;;;;;;;;;;;0.86;71.86;94904.13;4957545;28;19951;-67
2023/12/14 05:44:22;;;;;;;;;;;;;;;0.78;71.58;94915.28;4958120;28;20646;-67
2023/12/14 05:46:48;;;;;;;;;;;;;;;0.85;72.01;94915.56;4958742;28;19929;-67
2023/12/14 05:49:13;;;;;;;;;;;;;;;0.69;72.44;94922.13;4957797;28;19930;-67
2023/12/14 05:51:39;;;;;;;;;;;;;;;0.75;72.22;94923.38;4958111;28;19922;-67
2023/12/14 05:54:04;;;;;;;;;;;;;;;0.73;72.97;94920.09;4957251;28;19962;-67
2023/12/14 05:56:29;;;;;;;;;;;;;;;0.64;73.34;94926.13;4958012;28;20630;-67
2023/12/14 05:58:55;;;;;;;;;;;;;;;0.51;73.40;94936.84;4958518;28;19926;-67
2023/12/14 06:01:20;;;;;;;;;;;;;;;0.07;75.12;94941.31;4961266;28;19936;-66
2023/12/14 06:03:45;;;;;;;;;;;;;;;-0.12;76.13;94944.66;4959310;28;19963;-67
2023/12/14 06:06:11;;;;;;;;;;;;;;;-0.36;77.20;94950.13;4958644;28;20543;-67
2023/12/14 06:08:37;;;;;;;;;;;;;;;-0.16;77.14;94958.09;4956909;28;20487;-67
2023/12/14 06:11:02;;;;;;;;;;;;;;;-0.05;76.58;94961.50;4958514;28;20376;-67
2023/12/14 06:13:28;;;;;;;;;;;;;;;0.01;76.18;94962.78;4957808;28;19926;-67
2023/12/14 06:15:53;;;;;;;;;;;;;;;0.26;75.20;94971.19;4957776;28;19949;-67
2023/12/14 06:18:18;;;;;;;;;;;;;;;0.11;75.03;94964.63;4957596;28;19930;-67
2023/12/14 06:20:43;;;;;;;;;;;;;;;0.25;75.03;94969.53;4957636;28;19926;-67
2023/12/14 06:23:09;;;;;;;;;;;;;;;0.17;74.79;94974.59;4957759;28;20391;-67
2023/12/14 06:25:34;;;;;;;;;;;;;;;0.30;74.51;94983.06;4961495;28;19925;-67
2023/12/14 06:27:59;;;;;;;;;;;;;;;0.19;75.19;94990.97;4957337;28;19933;-67
2023/12/14 06:30:24;;;;;;;;;;;;;;;-0.11;75.78;95003.03;4957786;28;19922;-67
2023/12/14 06:32:50;;;;;;;;;;;;;;;-0.25;76.76;95004.16;4955342;28;19965;-67
2023/12/14 06:35:15;;;;;;;;;;;;;;;0.17;75.17;95008.63;4962742;28;19936;-67
2023/12/14 06:37:41;;;;;;;;;;;;;;;0.20;74.75;95003.09;4956973;28;20571;-67
2023/12/14 06:40:07;;;;;;;;;;;;;;;0.12;75.09;95008.16;4957489;28;20001;-67
2023/12/14 06:42:32;;;;;;;;;;;;;;;0.28;74.47;94995.44;4957515;28;20013;-67
2023/12/14 06:44:57;;;;;;;;;;;;;;;0.19;74.24;95009.31;4957830;28;19938;-67
2023/12/14 06:47:23;;;;;;;;;;;;;;;0.01;75.42;95009.91;4957242;28;20422;-67
2023/12/14 06:49:48;;;;;;;;;;;;;;;-0.13;75.17;95018.03;4957215;28;20088;-67
2023/12/14 06:52:13;;;;;;;;;;;;;;;0.01;75.46;95016.91;4956142;28;19934;-67
2023/12/14 06:54:38;;;;;;;;;;;;;;;0.46;75.06;95021.91;4957673;28;19973;-67
2023/12/14 06:57:04;;;;;;;;;;;;;;;0.38;73.97;95015.63;4956677;28;19933;-67
2023/12/14 06:59:29;;;;;;;;;;;;;;;0.79;72.70;95015.69;4957144;28;20651;-67
2023/12/14 07:01:55;;;;;;;;;;;;;;;0.94;72.10;95022.25;4958149;28;20376;-67
2023/12/14 07:04:20;;;;;;;;;;;;;;;1.04;70.78;95024.91;4956783;28;20511;-67
2023/12/14 07:06:52;;;;;;;;;;;;;;;0.82;70.86;95031.16;4956890;28;20610;-67
2023/12/14 07:09:17;;;;;;;;;;;;;;;0.71;72.08;95047.78;4954577;28;20037;-67
2023/12/14 07:11:42;;;;;;;;;;;;;;;0.60;71.89;95053.94;4956424;28;19926;-67
2023/12/14 07:14:08;;;;;;;;;;;;;;;0.27;72.20;95053.19;4987737;28;19926;-67
2023/12/14 07:16:33;;;;;;;;;;;;;;;0.45;72.40;95053.44;4956655;28;19948;-67
2023/12/14 07:18:58;;;;;;;;;;;;;;;0.45;71.74;95053.44;4956758;28;19930;-67
2023/12/14 07:21:23;;;;;;;;;;;;;;;0.67;71.56;95068.19;4956407;28;20623;-67
2023/12/14 07:23:49;;;;;;;;;;;;;;;0.72;71.14;95073.03;4956488;28;19989;-67
2023/12/14 07:26:14;;;;;;;;;;;;;;;0.71;71.38;95074.81;4957111;28;19926;-67
2023/12/14 07:28:39;;;;;;;;;;;;;;;0.68;71.39;95090.00;4954545;28;20039;-67
2023/12/14 07:31:05;;;;;;;;;;;;;;;0.38;71.96;95095.00;4954299;28;19934;-68
2023/12/14 07:33:30;;;;;;;;;;;;;;;0.10;73.15;95099.09;4953079;28;20476;-68
2023/12/14 07:35:55;;;;;;;;;;;;;;;-0.31;74.80;95100.53;4953752;28;19937;-68
2023/12/14 07:38:20;;;;;;;;;;;;;;;-0.54;76.15;95109.38;4952744;28;20009;-68
2023/12/14 07:40:46;;;;;;;;;;;;;;;-0.70;76.78;95124.47;4951248;28;19971;-69
2023/12/14 07:43:12;;;;;;;;;;;;;;;-0.50;76.59;95118.63;4956117;28;20429;-69
2023/12/14 07:45:37;;;;;;;;;;;;;;;-1.17;78.94;95128.94;4956139;28;19964;-69
2023/12/14 07:48:03;;;;;;;;;;;;;;;-1.52;80.57;95135.88;4951428;28;20010;-69
2023/12/14 07:50:29;;;;;;;;;;;;;;;-1.68;82.22;95141.38;4952623;28;19934;-68
2023/12/14 07:52:54;;;;;;;;;;;;;;;-1.62;82.53;95135.72;4954506;28;19930;-68
2023/12/14 07:55:19;;;;;;;;;;;;;;;-1.39;82.12;95148.84;4953375;28;19976;-68
2023/12/14 07:57:45;;;;;;;;;;;;;;;-1.74;83.16;95148.75;4952278;28;19965;-68
2023/12/14 08:00:10;;;;;;;;;;;;;;;-1.91;83.79;95142.13;4952660;28;19926;-69
2023/12/14 08:02:36;;;;;;;;;;;;;;;-1.74;83.27;95145.28;4953513;28;19932;-68
2023/12/14 08:05:01;;;;;;;;;;;;;;;-1.80;83.81;95146.56;4955003;28;19922;-68
2023/12/14 08:07:28;;;;;;;;;;;;;;;-1.96;85.11;95156.47;4956349;28;19930;-68
2023/12/14 08:09:56;;;;;;;;;;;;;;;-2.04;85.07;95164.84;4957546;28;20562;-68
2023/12/14 08:12:22;;;;;;;;;;;;;;;-2.46;86.92;95167.78;4954152;28;19926;-68
2023/12/14 08:14:47;;;;;;;;;;;;;;;-2.53;87.41;95175.22;4960441;28;19989;-68
2023/12/14 08:17:13;;;;;;;;;;;;;;;-2.53;88.67;95176.06;4957839;28;19956;-68
2023/12/14 08:19:38;;;;;;;;;;;;;;;-2.37;87.97;95191.44;4957605;28;19930;-68
2023/12/14 08:22:03;;;;;;;;;;;;;;;-2.04;86.18;95186.53;4956224;28;20354;-68
2023/12/14 08:24:28;;;;;;;;;;;;;;;-2.53;87.34;95198.66;4957192;28;19960;-68
2023/12/14 08:26:54;;;;;;;;;;;;;;;-2.58;88.54;95206.81;4955823;28;19956;-68
2023/12/14 08:29:19;;;;;;;;;;;;;;;-2.38;87.86;95207.19;4956448;28;19960;-68
2023/12/14 08:31:44;;;;;;;;;;;;;;;-2.40;87.96;95215.16;4956451;28;19961;-68
2023/12/14 08:34:10;;;;;;;;;;;;;;;-2.13;86.54;95218.53;4954863;28;19976;-69
2023/12/14 08:36:35;;;;;;;;;;;;;;;-2.41;87.06;95221.28;4952365;28;20557;-68
2023/12/14 08:39:00;;;;;;;;;;;;;;;-2.32;86.02;95221.56;4956777;28;20045;-69
2023/12/14 08:41:25;;;;;;;;;;;;;;;-2.31;86.31;95229.28;4955267;28;20351;-69
2023/12/14 08:43:51;;;;;;;;;;;;;;;-2.58;87.83;95229.44;4956614;28;20036;-69
2023/12/14 08:46:16;;;;;;;;;;;;;;;-2.18;86.68;95233.63;4956085;28;20695;-68
2023/12/14 08:48:41;;;;;;;;;;;;;;;-2.17;85.08;95235.34;4955273;28;19977;-67
2023/12/14 08:51:07;;;;;;;;;;;;;;;-2.08;85.68;95239.88;4954607;28;19940;-68
2023/12/14 08:53:32;;;;;;;;;;;;;;;-1.66;83.71;95239.53;4955371;28;19960;-68
2023/12/14 08:55:57;;;;;;;;;;;;;;;-2.04;84.90;95253.56;4956435;28;20441;-66
2023/12/14 08:58:22;;;;;;;;;;;;;;;-1.78;83.52;95258.69;4959737;28;20661;-67
2023/12/14 09:00:52;;;;;;;;;;;;;;;-2.09;85.41;95263.47;4958785;28;20607;-67
2023/12/14 09:03:18;;;;;;;;;;;;;;;-1.98;84.39;95267.00;4953417;28;19957;-67
2023/12/14 09:05:44;;;;;;;;;;;;;;;-1.97;84.92;95275.66;4958086;28;19922;-67
2023/12/14 09:08:09;;;;;;;;;;;;;;;-1.69;83.64;95285.91;4951650;28;19941;-67
2023/12/14 09:10:34;;;;;;;;;;;;;;;-1.80;83.45;95294.53;4959317;28;19953;-67
2023/12/14 09:13:03;;;;;;;;;;;;;;;-1.64;82.49;95300.31;4959027;28;20390;-67
2023/12/14 09:15:29;;;;;;;;;;;;;;;-1.63;82.33;95303.78;4958446;28;19961;-67
2023/12/14 09:17:54;;;;;;;;;;;;;;;-1.61;82.90;95307.94;4959386;28;20367;-67
2023/12/14 09:20:19;;;;;;;;;;;;;;;-1.83;82.91;95311.25;4958189;28;19926;-66
2023/12/14 09:22:45;;;;;;;;;;;;;;;-1.63;82.99;95315.03;4959066;28;19983;-66
2023/12/14 09:25:10;;;;;;;;;;;;;;;-1.32;81.25;95313.78;4957962;28;19922;-67
2023/12/14 09:27:36;;;;;;;;;;;;;;;-1.65;82.37;95323.91;4958077;28;20059;-67
2023/12/14 09:30:01;;;;;;;;;;;;;;;-1.53;81.97;95330.06;4958071;28;19922;-67
2023/12/14 09:32:26;;;;;;;;;;;;;;;-1.44;81.53;95331.16;4956498;28;20382;-67
2023/12/14 09:34:51;;;;;;;;;;;;;;;-1.16;80.46;95331.78;4958750;28;19964;-66
2023/12/14 09:37:17;;;;;;;;;;;;;;;-0.86;79.67;95336.56;4958129;28;20052;-66
2023/12/14 09:39:42;;;;;;;;;;;;;;;-1.09;79.61;95346.06;4957737;28;20706;-68
2023/12/14 09:42:08;;;;;;;;;;;;;;;-1.18;79.40;95349.34;4958859;28;19922;-67
2023/12/14 09:44:33;;;;;;;;;;;;;;;-1.33;79.74;95362.56;4957972;28;20244;-68
2023/12/14 09:46:59;;;;;;;;;;;;;;;-1.32;80.42;95371.25;4987757;28;20108;-67
2023/12/14 09:49:28;;;;;;;;;;;;;;;-1.41;81.17;95364.91;4956292;28;19970;-67
2023/12/14 09:51:53;;;;;;;;;;;;;;;-1.63;81.50;95369.84;4958061;28;19928;-67
2023/12/14 09:54:18;;;;;;;;;;;;;;;-1.37;80.95;95369.81;4957062;28;19941;-67
2023/12/14 09:56:47;;;;;;;;;;;;;;;-0.76;78.67;95368.09;4957863;28;20351;-66
2023/12/14 09:59:12;;;;;;;;;;;;;;;-0.47;77.38;95367.69;4958530;28;19961;-67
2023/12/14 10:01:37;;;;;;;;;;;;;;;-0.07;76.74;95371.69;4958255;28;20581;-67
2023/12/14 10:04:09;;;;;;;;;;;;;;;-0.10;75.74;95379.78;4957379;28;20681;-66
2023/12/14 10:06:34;;;;;;;;;;;;;;;-0.32;77.00;95380.59;4952673;28;19960;-67
2023/12/14 10:08:59;;;;;;;;;;;;;;;-0.91;77.86;95385.75;4952661;28;20010;-68
2023/12/14 10:11:24;;;;;;;;;;;;;;;-1.32;80.44;95392.16;4957453;28;19963;-67
2023/12/14 10:13:50;;;;;;;;;;;;;;;-1.08;80.12;95394.78;4958261;28;20418;-67
2023/12/14 10:16:30;;;;;;;;;;;;;;;-1.12;79.34;95394.16;4957383;28;19961;-67
2023/12/14 10:18:57;;;;;;;;;;;;;;;-1.19;79.42;95402.56;4957832;28;19926;-67
2023/12/14 10:21:22;;;;;;;;;;;;;;;-1.75;82.51;95405.50;4957384;28;19968;-67
2023/12/14 10:23:47;;;;;;;;;;;;;;;-1.39;81.79;95399.59;4957548;28;19965;-67
2023/12/14 10:26:13;;;;;;;;;;;;;;;-1.27;80.78;95409.16;4956065;28;20039;-67
2023/12/14 10:28:41;;;;;;;;;;;;;;;-1.42;80.49;95410.25;4955270;28;20061;-66
2023/12/14 10:31:06;;;;;;;;;;;;;;;-0.97;79.02;95409.69;4951770;28;19932;-67
2023/12/14 10:33:32;;;;;;;;;;;;;;;-1.29;79.95;95411.03;4950772;28;19937;-67
2023/12/14 10:35:57;;;;;;;;;;;;;;;-1.37;80.67;95416.81;4957055;28;19989;-67
2023/12/14 10:38:22;;;;;;;;;;;;;;;-1.49;80.88;95420.28;4955692;28;20017;-67
2023/12/14 10:40:47;;;;;;;;;;;;;;;-1.31;80.03;95426.00;4957368;28;19969;-67
2023/12/14 10:43:13;;;;;;;;;;;;;;;-1.66;81.69;95426.69;4956755;28;20074;-67
2023/12/14 10:45:38;;;;;;;;;;;;;;;-1.00;80.18;95422.97;4955575;28;20042;-67
2023/12/14 10:48:04;;;;;;;;;;;;;;;-0.66;78.06;95431.00;4955622;28;19963;-67
2023/12/14 10:50:30;;;;;;;;;;;;;;;-0.88;79.01;95442.19;4956526;28;20015;-67
2023/12/14 10:52:55;;;;;;;;;;;;;;;-1.01;78.05;95452.66;4956618;28;19926;-67
2023/12/14 10:55:30;;;;;;;;;;;;;;;-0.22;76.26;95438.28;4956947;28;20614;-68
2023/12/14 10:57:56;;;;;;;;;;;;;;;-0.32;75.61;95446.00;4957647;28;19988;-67
2023/12/14 11:00:22;;;;;;;;;;;;;;;-0.09;74.66;95457.38;4956540;28;19929;-68
2023/12/14 11:02:47;;;;;;;;;;;;;;;-0.00;73.46;95449.78;4956709;28;19930;-68
2023/12/14 11:05:15;;;;;;;;;;;;;;;-0.02;73.99;95459.50;4956905;28;19962;-68
2023/12/14 11:07:46;;;;;;;;;;;;;;;-0.28;75.10;95459.66;4956681;28;19926;-68
2023/12/14 11:10:12;;;;;;;;;;;;;;;-0.13;74.62;95455.09;4955511;28;19924;-68
2023/12/14 11:12:37;;;;;;;;;;;;;;;0.05;73.85;95456.34;4956415;28;19941;-68
2023/12/14 11:15:03;;;;;;;;;;;;;;;0.05;73.19;95453.72;4956578;28;20016;-67
2023/12/14 11:17:29;;;;;;;;;;;;;;;0.00;73.17;95463.69;4956382;28;19956;-68
2023/12/14 11:19:55;;;;;;;;;;;;;;;0.01;73.26;95462.75;4955127;28;19961;-68
2023/12/14 11:22:23;;;;;;;;;;;;;;;-0.15;73.61;95462.22;4956034;28;19922;-68
2023/12/14 11:24:52;;;;;;;;;;;;;;;-0.59;74.68;95468.00;4956252;28;19961;-68
2023/12/14 11:27:19;;;;;;;;;;;;;;;-0.35;74.50;95467.16;4956596;28;19918;-68
2023/12/14 11:29:44;;;;;;;;;;;;;;;-0.72;74.85;95473.28;4956547;28;20000;-68
2023/12/14 11:32:10;;;;;;;;;;;;;;;-0.55;74.73;95484.31;4955907;28;20007;-68
2023/12/14 11:34:35;;;;;;;;;;;;;;;-0.63;74.41;95487.47;4956469;28;19926;-68
2023/12/14 11:37:00;;;;;;;;;;;;;;;-0.46;74.69;95484.50;4955653;28;19964;-67
2023/12/14 11:39:29;;;;;;;;;;;;;;;-0.75;74.95;95484.81;4959845;28;20268;-67
2023/12/14 11:42:01;;;;;;;;;;;;;;;-0.27;74.13;95490.16;4960313;28;19945;-67
2023/12/14 11:44:27;;;;;;;;;;;;;;;-0.26;73.47;95487.41;4958852;28;19929;-68
2023/12/14 11:46:52;;;;;;;;;;;;;;;-0.36;73.81;95489.03;4954115;28;19937;-68
2023/12/14 11:49:17;;;;;;;;;;;;;;;0.06;72.44;95497.25;4959785;28;20000;-68
2023/12/14 11:51:45;;;;;;;;;;;;;;;0.08;72.02;95508.44;4961497;28;20485;-68
2023/12/14 11:54:10;;;;;;;;;;;;;;;-0.32;72.80;95507.00;4960064;28;19926;-67
2023/12/14 11:56:35;;;;;;;;;;;;;;;-0.16;73.14;95513.75;4959610;28;19977;-66
2023/12/14 11:59:01;;;;;;;;;;;;;;;-0.38;74.09;95511.84;4961058;28;19930;-67
2023/12/14 12:01:28;;;;;;;;;;;;;;;-0.50;76.10;95505.75;4960884;28;20029;-67
2023/12/14 12:03:53;;;;;;;;;;;;;;;-0.39;73.87;95518.88;4957593;28;20426;-67
2023/12/14 12:06:22;;;;;;;;;;;;;;;-1.11;76.63;95515.19;4961310;28;19935;-67
2023/12/14 12:08:47;;;;;;;;;;;;;;;-1.20;78.16;95519.28;4960421;28;20853;-66
2023/12/14 12:11:19;;;;;;;;;;;;;;;-0.99;77.13;95526.56;4961108;28;19967;-67
2023/12/14 12:13:44;;;;;;;;;;;;;;;-1.09;77.29;95519.38;4960688;28;19998;-67
2023/12/14 12:16:09;;;;;;;;;;;;;;;-0.59;76.29;95521.16;4975193;28;19953;-68
2023/12/14 12:18:35;;;;;;;;;;;;;;;-0.08;73.80;95523.63;4961838;28;20027;-69
2023/12/14 12:21:03;;;;;;;;;;;;;;;-0.09;72.85;95524.59;4960193;28;19953;-69
2023/12/14 12:23:29;;;;;;;;;;;;;;;-0.60;74.39;95522.06;4960812;28;19937;-69
2023/12/14 12:25:55;;;;;;;;;;;;;;;-0.11;73.68;95523.84;4961109;28;20621;-69
2023/12/14 12:28:20;;;;;;;;;;;;;;;-0.08;72.76;95534.94;4961504;28;19968;-69
2023/12/14 12:30:46;;;;;;;;;;;;;;;-0.16;73.80;95525.97;4961362;28;20077;-69
2023/12/14 12:33:12;;;;;;;;;;;;;;;-0.43;73.89;95533.13;4960000;28;19930;-69
2023/12/14 12:35:37;;;;;;;;;;;;;;;-0.24;74.84;95526.56;4959044;28;19934;-69
2023/12/14 12:38:03;;;;;;;;;;;;;;;-0.16;73.57;95524.22;4962092;28;19988;-70
2023/12/14 12:40:30;;;;;;;;;;;;;;;-0.01;73.28;95537.09;4961018;28;20459;-69
2023/12/14 12:42:56;;;;;;;;;;;;;;;-0.10;71.55;95542.06;4958731;28;19926;-69
2023/12/14 12:45:22;;;;;;;;;;;;;;;-0.17;72.61;95535.59;4961047;28;19933;-69